sensor_id;sensor_type;location;lat;lon;timestamp;pressure;altitude;pressure_sealevel;temperature;humidity
51195;BME280;37259;49.972;19.850;2022-07-11T00:00:23;98670;;;13.4;100
51195;BME280;37259;49.972;19.850;2022-07-11T00:01:23;98670;;;13.4;100
51195;BME280;37259;49.972;19.850;2022-07-11T00:02:23;98670;;;13.3;100
51195;BME280;37259;49.972;19.850;2022-07-11T00:03:23;98670;;;13.3;100
51195;BME280;37259;49.972;19.850;2022-07-11T00:04:23;98670;;;13.3;100
51195;BME280;37259;49.972;19.850;2022-07-11T00:05:23;98670;;;13.3;100
51195;BME280;37259;49.972;19.850;2022-07-11T00:06:23;98670;;;13.3;100
51195;BME280;37259;49.972;19.850;2022-07-11T00:07:23;98670;;;13.3;100
51195;BME280;37259;49.972;19.850;2022-07-11T00:08:23;98670;;;13.3;100
51195;BME280;37259;49.972;19.850;2022-07-11T00:09:23;98670;;;13.3;100
51195;BME280;37259;49.972;19.850;2022-07-11T00:10:23;98670;;;13.3;100
51195;BME280;37259;49.972;19.850;2022-07-11T00:11:23;98670;;;13.3;100
51195;BME280;37259;49.972;19.850;2022-07-11T00:12:23;98670;;;13.3;100
51195;BME280;37259;49.972;19.850;2022-07-11T00:13:23;98670;;;13.3;100
51195;BME280;37259;49.972;19.850;2022-07-11T00:14:24;98670;;;13.3;100
51195;BME280;37259;49.972;19.850;2022-07-11T00:15:23;98670;;;13.3;100
51195;BME280;37259;49.972;19.850;2022-07-11T00:16:23;98670;;;13.4;100
51195;BME280;37259;49.972;19.850;2022-07-11T00:17:23;98670;;;13.4;100
51195;BME280;37259;49.972;19.850;2022-07-11T00:18:23;98670;;;13.3;100
51195;BME280;37259;49.972;19.850;2022-07-11T00:19:23;98670;;;13.3;100
51195;BME280;37259;49.972;19.850;2022-07-11T00:20:23;98670;;;13.3;100
51195;BME280;37259;49.972;19.850;2022-07-11T00:21:23;98670;;;13.4;100
51195;BME280;37259;49.972;19.850;2022-07-11T00:22:23;98670;;;13.3;100
51195;BME280;37259;49.972;19.850;2022-07-11T00:23:23;98670;;;13.3;100
51195;BME280;37259;49.972;19.850;2022-07-11T00:24:23;98670;;;13.3;100
51195;BME280;37259;49.972;19.850;2022-07-11T00:25:23;98670;;;13.3;100
51195;BME280;37259;49.972;19.850;2022-07-11T00:26:23;98670;;;13.3;100
51195;BME280;37259;49.972;19.850;2022-07-11T00:27:23;98670;;;13.3;100
51195;BME280;37259;49.972;19.850;2022-07-11T00:28:23;98670;;;13.4;100
51195;BME280;37259;49.972;19.850;2022-07-11T00:29:23;98670;;;13.4;100
51195;BME280;37259;49.972;19.850;2022-07-11T00:30:23;98670;;;13.4;100
51195;BME280;37259;49.972;19.850;2022-07-11T00:31:23;98670;;;13.4;100
51195;BME280;37259;49.972;19.850;2022-07-11T00:32:23;98670;;;13.3;100
51195;BME280;37259;49.972;19.850;2022-07-11T00:33:23;98670;;;13.3;100
51195;BME280;37259;49.972;19.850;2022-07-11T00:34:23;98670;;;13.3;100
51195;BME280;37259;49.972;19.850;2022-07-11T00:35:23;98670;;;13.3;100
51195;BME280;37259;49.972;19.850;2022-07-11T00:36:23;98670;;;13.3;100
51195;BME280;37259;49.972;19.850;2022-07-11T00:37:23;98670;;;13.3;100
51195;BME280;37259;49.972;19.850;2022-07-11T00:38:23;98670;;;13.3;100
51195;BME280;37259;49.972;19.850;2022-07-11T00:39:23;98670;;;13.3;100
51195;BME280;37259;49.972;19.850;2022-07-11T00:40:23;98670;;;13.3;100
51195;BME280;37259;49.972;19.850;2022-07-11T00:41:23;98680;;;13.3;100
51195;BME280;37259;49.972;19.850;2022-07-11T00:42:23;98680;;;13.3;100
51195;BME280;37259;49.972;19.850;2022-07-11T00:43:29;98670;;;13.3;100
51195;BME280;37259;49.972;19.850;2022-07-11T00:44:23;98670;;;13.3;100
51195;BME280;37259;49.972;19.850;2022-07-11T00:45:23;98670;;;13.4;100
51195;BME280;37259;49.972;19.850;2022-07-11T00:46:23;98670;;;13.4;100
51195;BME280;37259;49.972;19.850;2022-07-11T00:47:23;98670;;;13.3;100
51195;BME280;37259;49.972;19.850;2022-07-11T00:48:23;98670;;;13.3;100
51195;BME280;37259;49.972;19.850;2022-07-11T00:49:23;98670;;;13.3;100
51195;BME280;37259;49.972;19.850;2022-07-11T00:50:23;98670;;;13.3;100
51195;BME280;37259;49.972;19.850;2022-07-11T00:51:23;98670;;;13.3;100
51195;BME280;37259;49.972;19.850;2022-07-11T00:52:23;98670;;;13.3;100
51195;BME280;37259;49.972;19.850;2022-07-11T00:53:23;98670;;;13.3;100
51195;BME280;37259;49.972;19.850;2022-07-11T00:54:23;98670;;;13.3;100
51195;BME280;37259;49.972;19.850;2022-07-11T00:55:23;98670;;;13.2;100
51195;BME280;37259;49.972;19.850;2022-07-11T00:56:24;98670;;;13.3;100
51195;BME280;37259;49.972;19.850;2022-07-11T00:57:23;98670;;;13.3;100
51195;BME280;37259;49.972;19.850;2022-07-11T00:58:23;98670;;;13.3;100
51195;BME280;37259;49.972;19.850;2022-07-11T00:59:23;98670;;;13.3;100
51195;BME280;37259;49.972;19.850;2022-07-11T01:00:23;98670;;;13.3;100
51195;BME280;37259;49.972;19.850;2022-07-11T01:01:23;98670;;;13.3;100
51195;BME280;37259;49.972;19.850;2022-07-11T01:02:23;98670;;;13.3;100
51195;BME280;37259;49.972;19.850;2022-07-11T01:03:23;98670;;;13.3;100
51195;BME280;37259;49.972;19.850;2022-07-11T01:04:23;98670;;;13.3;100
51195;BME280;37259;49.972;19.850;2022-07-11T01:05:23;98670;;;13.3;100
51195;BME280;37259;49.972;19.850;2022-07-11T01:06:23;98670;;;13.3;100
51195;BME280;37259;49.972;19.850;2022-07-11T01:07:23;98670;;;13.3;100
51195;BME280;37259;49.972;19.850;2022-07-11T01:08:23;98670;;;13.4;100
51195;BME280;37259;49.972;19.850;2022-07-11T01:09:23;98670;;;13.3;100
51195;BME280;37259;49.972;19.850;2022-07-11T01:10:23;98670;;;13.3;100
51195;BME280;37259;49.972;19.850;2022-07-11T01:11:23;98680;;;13.4;100
51195;BME280;37259;49.972;19.850;2022-07-11T01:12:23;98680;;;13.4;100
51195;BME280;37259;49.972;19.850;2022-07-11T01:13:23;98680;;;13.3;100
51195;BME280;37259;49.972;19.850;2022-07-11T01:14:23;98680;;;13.3;100
51195;BME280;37259;49.972;19.850;2022-07-11T01:15:23;98680;;;13.3;100
51195;BME280;37259;49.972;19.850;2022-07-11T01:16:23;98680;;;13.3;100
51195;BME280;37259;49.972;19.850;2022-07-11T01:17:23;98680;;;13.3;100
51195;BME280;37259;49.972;19.850;2022-07-11T01:18:23;98680;;;13.3;100
51195;BME280;37259;49.972;19.850;2022-07-11T01:19:23;98680;;;13.3;100
51195;BME280;37259;49.972;19.850;2022-07-11T01:20:23;98680;;;13.3;100
51195;BME280;37259;49.972;19.850;2022-07-11T01:21:24;98680;;;13.3;100
51195;BME280;37259;49.972;19.850;2022-07-11T01:22:24;98680;;;13.3;100
51195;BME280;37259;49.972;19.850;2022-07-11T01:23:23;98680;;;13.3;100
51195;BME280;37259;49.972;19.850;2022-07-11T01:24:23;98680;;;13.3;100
51195;BME280;37259;49.972;19.850;2022-07-11T01:25:23;98680;;;13.3;100
51195;BME280;37259;49.972;19.850;2022-07-11T01:26:23;98680;;;13.3;100
51195;BME280;37259;49.972;19.850;2022-07-11T01:27:23;98680;;;13.3;100
51195;BME280;37259;49.972;19.850;2022-07-11T01:28:23;98670;;;13.3;100
51195;BME280;37259;49.972;19.850;2022-07-11T01:29:23;98670;;;13.3;100
51195;BME280;37259;49.972;19.850;2022-07-11T01:30:23;98670;;;13.4;100
51195;BME280;37259;49.972;19.850;2022-07-11T01:31:23;98670;;;13.4;100
51195;BME280;37259;49.972;19.850;2022-07-11T01:32:23;98670;;;13.4;100
51195;BME280;37259;49.972;19.850;2022-07-11T01:33:23;98670;;;13.4;100
51195;BME280;37259;49.972;19.850;2022-07-11T01:34:23;98670;;;13.4;100
51195;BME280;37259;49.972;19.850;2022-07-11T01:35:23;98670;;;13.4;100
51195;BME280;37259;49.972;19.850;2022-07-11T01:36:23;98670;;;13.4;100
51195;BME280;37259;49.972;19.850;2022-07-11T01:37:23;98670;;;13.4;100
51195;BME280;37259;49.972;19.850;2022-07-11T01:38:23;98670;;;13.4;100
51195;BME280;37259;49.972;19.850;2022-07-11T01:39:23;98680;;;13.4;100
51195;BME280;37259;49.972;19.850;2022-07-11T01:40:23;98670;;;13.4;100
51195;BME280;37259;49.972;19.850;2022-07-11T01:41:23;98670;;;13.4;100
51195;BME280;37259;49.972;19.850;2022-07-11T01:42:23;98670;;;13.4;100
51195;BME280;37259;49.972;19.850;2022-07-11T01:43:23;98680;;;13.4;100
51195;BME280;37259;49.972;19.850;2022-07-11T01:44:23;98680;;;13.3;100
51195;BME280;37259;49.972;19.850;2022-07-11T01:45:23;98680;;;13.3;100
51195;BME280;37259;49.972;19.850;2022-07-11T01:46:23;98670;;;13.2;100
51195;BME280;37259;49.972;19.850;2022-07-11T01:47:23;98670;;;13.1;100
51195;BME280;37259;49.972;19.850;2022-07-11T01:48:23;98670;;;13.1;100
51195;BME280;37259;49.972;19.850;2022-07-11T01:49:23;98670;;;13.2;100
51195;BME280;37259;49.972;19.850;2022-07-11T01:50:23;98670;;;13.2;100
51195;BME280;37259;49.972;19.850;2022-07-11T01:51:23;98670;;;13.2;100
51195;BME280;37259;49.972;19.850;2022-07-11T01:52:23;98670;;;13.2;100
51195;BME280;37259;49.972;19.850;2022-07-11T01:53:23;98670;;;13.2;100
51195;BME280;37259;49.972;19.850;2022-07-11T01:54:23;98670;;;13.2;100
51195;BME280;37259;49.972;19.850;2022-07-11T01:55:23;98670;;;13.2;100
51195;BME280;37259;49.972;19.850;2022-07-11T01:56:23;98670;;;13.1;100
51195;BME280;37259;49.972;19.850;2022-07-11T01:57:23;98670;;;13.1;100
51195;BME280;37259;49.972;19.850;2022-07-11T01:58:23;98670;;;13.2;100
51195;BME280;37259;49.972;19.850;2022-07-11T01:59:23;98670;;;13.2;100
51195;BME280;37259;49.972;19.850;2022-07-11T02:00:23;98670;;;13.2;100
51195;BME280;37259;49.972;19.850;2022-07-11T02:01:23;98670;;;13.2;100
51195;BME280;37259;49.972;19.850;2022-07-11T02:02:23;98670;;;13.2;100
51195;BME280;37259;49.972;19.850;2022-07-11T02:03:23;98670;;;13.2;100
51195;BME280;37259;49.972;19.850;2022-07-11T02:04:23;98670;;;13.2;100
51195;BME280;37259;49.972;19.850;2022-07-11T02:05:23;98670;;;13.2;100
51195;BME280;37259;49.972;19.850;2022-07-11T02:06:23;98670;;;13.2;100
51195;BME280;37259;49.972;19.850;2022-07-11T02:07:23;98670;;;13.2;100
51195;BME280;37259;49.972;19.850;2022-07-11T02:08:23;98670;;;13.2;100
51195;BME280;37259;49.972;19.850;2022-07-11T02:09:23;98660;;;13.2;100
51195;BME280;37259;49.972;19.850;2022-07-11T02:10:23;98670;;;13.2;100
51195;BME280;37259;49.972;19.850;2022-07-11T02:11:23;98670;;;13.2;100
51195;BME280;37259;49.972;19.850;2022-07-11T02:12:23;98660;;;13.2;100
51195;BME280;37259;49.972;19.850;2022-07-11T02:13:23;98660;;;13.2;100
51195;BME280;37259;49.972;19.850;2022-07-11T02:14:23;98660;;;13.2;100
51195;BME280;37259;49.972;19.850;2022-07-11T02:15:23;98660;;;13.2;100
51195;BME280;37259;49.972;19.850;2022-07-11T02:16:23;98670;;;13.3;100
51195;BME280;37259;49.972;19.850;2022-07-11T02:17:23;98670;;;13.1;100
51195;BME280;37259;49.972;19.850;2022-07-11T02:18:23;98670;;;13.1;100
51195;BME280;37259;49.972;19.850;2022-07-11T02:19:23;98660;;;13.2;100
51195;BME280;37259;49.972;19.850;2022-07-11T02:20:24;98660;;;13.2;100
51195;BME280;37259;49.972;19.850;2022-07-11T02:21:23;98660;;;13.2;100
51195;BME280;37259;49.972;19.850;2022-07-11T02:22:23;98660;;;13.2;100
51195;BME280;37259;49.972;19.850;2022-07-11T02:23:23;98660;;;13.1;100
51195;BME280;37259;49.972;19.850;2022-07-11T02:24:23;98660;;;13.1;100
51195;BME280;37259;49.972;19.850;2022-07-11T02:25:23;98660;;;13.2;100
51195;BME280;37259;49.972;19.850;2022-07-11T02:26:23;98660;;;13.1;100
51195;BME280;37259;49.972;19.850;2022-07-11T02:27:23;98660;;;13.1;100
51195;BME280;37259;49.972;19.850;2022-07-11T02:28:23;98660;;;13.1;100
51195;BME280;37259;49.972;19.850;2022-07-11T02:29:23;98660;;;13.1;100
51195;BME280;37259;49.972;19.850;2022-07-11T02:30:23;98660;;;13.1;100
51195;BME280;37259;49.972;19.850;2022-07-11T02:31:23;98660;;;13.1;100
51195;BME280;37259;49.972;19.850;2022-07-11T02:32:23;98660;;;13.1;100
51195;BME280;37259;49.972;19.850;2022-07-11T02:33:23;98670;;;13.1;100
51195;BME280;37259;49.972;19.850;2022-07-11T02:34:23;98670;;;13.1;100
51195;BME280;37259;49.972;19.850;2022-07-11T02:35:23;98660;;;13.2;100
51195;BME280;37259;49.972;19.850;2022-07-11T02:36:23;98660;;;13.2;100
51195;BME280;37259;49.972;19.850;2022-07-11T02:37:23;98670;;;13.1;100
51195;BME280;37259;49.972;19.850;2022-07-11T02:38:23;98670;;;13.1;100
51195;BME280;37259;49.972;19.850;2022-07-11T02:39:23;98670;;;13.1;100
51195;BME280;37259;49.972;19.850;2022-07-11T02:40:23;98670;;;13.1;100
51195;BME280;37259;49.972;19.850;2022-07-11T02:41:23;98670;;;13.1;100
51195;BME280;37259;49.972;19.850;2022-07-11T02:42:23;98670;;;13.1;100
51195;BME280;37259;49.972;19.850;2022-07-11T02:43:23;98670;;;13.1;100
51195;BME280;37259;49.972;19.850;2022-07-11T02:44:23;98670;;;13.1;100
51195;BME280;37259;49.972;19.850;2022-07-11T02:45:23;98670;;;13;100
51195;BME280;37259;49.972;19.850;2022-07-11T02:46:23;98680;;;13.1;100
51195;BME280;37259;49.972;19.850;2022-07-11T02:47:23;98680;;;13.1;100
51195;BME280;37259;49.972;19.850;2022-07-11T02:48:23;98670;;;13.1;100
51195;BME280;37259;49.972;19.850;2022-07-11T02:49:23;98670;;;13.1;100
51195;BME280;37259;49.972;19.850;2022-07-11T02:50:23;98670;;;13.1;100
51195;BME280;37259;49.972;19.850;2022-07-11T02:51:23;98670;;;13.1;100
51195;BME280;37259;49.972;19.850;2022-07-11T02:52:23;98670;;;13.1;100
51195;BME280;37259;49.972;19.850;2022-07-11T02:53:23;98670;;;13.1;100
51195;BME280;37259;49.972;19.850;2022-07-11T02:54:23;98670;;;13.1;100
51195;BME280;37259;49.972;19.850;2022-07-11T02:55:23;98670;;;13.1;100
51195;BME280;37259;49.972;19.850;2022-07-11T02:56:23;98680;;;13.2;100
51195;BME280;37259;49.972;19.850;2022-07-11T02:57:23;98670;;;13.2;100
51195;BME280;37259;49.972;19.850;2022-07-11T02:58:23;98670;;;13.2;100
51195;BME280;37259;49.972;19.850;2022-07-11T02:59:23;98670;;;13.1;100
51195;BME280;37259;49.972;19.850;2022-07-11T03:00:23;98670;;;13.1;100
51195;BME280;37259;49.972;19.850;2022-07-11T03:01:23;98670;;;13.2;100
51195;BME280;37259;49.972;19.850;2022-07-11T03:02:23;98670;;;13.2;100
51195;BME280;37259;49.972;19.850;2022-07-11T03:03:23;98670;;;13.2;100
51195;BME280;37259;49.972;19.850;2022-07-11T03:04:23;98670;;;13.2;100
51195;BME280;37259;49.972;19.850;2022-07-11T03:05:23;98670;;;13.2;100
51195;BME280;37259;49.972;19.850;2022-07-11T03:06:23;98670;;;13.2;100
51195;BME280;37259;49.972;19.850;2022-07-11T03:07:23;98670;;;13.2;100
51195;BME280;37259;49.972;19.850;2022-07-11T03:08:23;98680;;;13.3;100
51195;BME280;37259;49.972;19.850;2022-07-11T03:09:23;98680;;;13.3;100
51195;BME280;37259;49.972;19.850;2022-07-11T03:10:23;98670;;;13.2;100
51195;BME280;37259;49.972;19.850;2022-07-11T03:11:23;98680;;;13.3;100
51195;BME280;37259;49.972;19.850;2022-07-11T03:12:23;98670;;;13.2;100
51195;BME280;37259;49.972;19.850;2022-07-11T03:13:23;98670;;;13.2;100
51195;BME280;37259;49.972;19.850;2022-07-11T03:14:23;98670;;;13.3;100
51195;BME280;37259;49.972;19.850;2022-07-11T03:15:23;98670;;;13.3;100
51195;BME280;37259;49.972;19.850;2022-07-11T03:16:23;98670;;;13.2;100
51195;BME280;37259;49.972;19.850;2022-07-11T03:17:23;98670;;;13.2;100
51195;BME280;37259;49.972;19.850;2022-07-11T03:18:23;98670;;;13.1;100
51195;BME280;37259;49.972;19.850;2022-07-11T03:19:23;98670;;;13.1;100
51195;BME280;37259;49.972;19.850;2022-07-11T03:20:23;98670;;;13.1;100
51195;BME280;37259;49.972;19.850;2022-07-11T03:21:23;98670;;;13.1;100
51195;BME280;37259;49.972;19.850;2022-07-11T03:22:23;98670;;;13.2;100
51195;BME280;37259;49.972;19.850;2022-07-11T03:23:23;98670;;;13.2;100
51195;BME280;37259;49.972;19.850;2022-07-11T03:24:23;98680;;;13.3;100
51195;BME280;37259;49.972;19.850;2022-07-11T03:25:23;98670;;;13.3;100
51195;BME280;37259;49.972;19.850;2022-07-11T03:26:23;98670;;;13.3;100
51195;BME280;37259;49.972;19.850;2022-07-11T03:27:23;98680;;;13.3;100
51195;BME280;37259;49.972;19.850;2022-07-11T03:28:23;98680;;;13.3;100
51195;BME280;37259;49.972;19.850;2022-07-11T03:29:23;98680;;;13.3;100
51195;BME280;37259;49.972;19.850;2022-07-11T03:30:23;98680;;;13.2;100
51195;BME280;37259;49.972;19.850;2022-07-11T03:31:23;98680;;;13.2;100
51195;BME280;37259;49.972;19.850;2022-07-11T03:32:23;98680;;;13.2;100
51195;BME280;37259;49.972;19.850;2022-07-11T03:33:23;98680;;;13.3;100
51195;BME280;37259;49.972;19.850;2022-07-11T03:34:23;98680;;;13.3;100
51195;BME280;37259;49.972;19.850;2022-07-11T03:35:23;98680;;;13.3;100
51195;BME280;37259;49.972;19.850;2022-07-11T03:36:23;98680;;;13.3;100
51195;BME280;37259;49.972;19.850;2022-07-11T03:37:23;98680;;;13.3;100
51195;BME280;37259;49.972;19.850;2022-07-11T03:38:23;98680;;;13.3;100
51195;BME280;37259;49.972;19.850;2022-07-11T03:39:23;98680;;;13.2;100
51195;BME280;37259;49.972;19.850;2022-07-11T03:40:23;98680;;;13.2;100
51195;BME280;37259;49.972;19.850;2022-07-11T03:41:23;98680;;;13.2;100
51195;BME280;37259;49.972;19.850;2022-07-11T03:42:23;98690;;;13.2;100
51195;BME280;37259;49.972;19.850;2022-07-11T03:43:23;98690;;;13.2;100
51195;BME280;37259;49.972;19.850;2022-07-11T03:44:23;98680;;;13.2;100
51195;BME280;37259;49.972;19.850;2022-07-11T03:45:23;98690;;;13.2;100
51195;BME280;37259;49.972;19.850;2022-07-11T03:46:23;98680;;;13.2;100
51195;BME280;37259;49.972;19.850;2022-07-11T03:47:23;98680;;;13.2;100
51195;BME280;37259;49.972;19.850;2022-07-11T03:48:23;98680;;;13.2;100
51195;BME280;37259;49.972;19.850;2022-07-11T03:49:23;98680;;;13.2;100
51195;BME280;37259;49.972;19.850;2022-07-11T03:50:23;98680;;;13.2;100
51195;BME280;37259;49.972;19.850;2022-07-11T03:51:23;98690;;;13.2;100
51195;BME280;37259;49.972;19.850;2022-07-11T03:52:23;98690;;;13.2;100
51195;BME280;37259;49.972;19.850;2022-07-11T03:53:23;98690;;;13.2;100
51195;BME280;37259;49.972;19.850;2022-07-11T03:54:23;98680;;;13.2;100
51195;BME280;37259;49.972;19.850;2022-07-11T03:55:23;98690;;;13.2;100
51195;BME280;37259;49.972;19.850;2022-07-11T03:56:23;98690;;;13.2;100
51195;BME280;37259;49.972;19.850;2022-07-11T03:57:23;98680;;;13.2;100
51195;BME280;37259;49.972;19.850;2022-07-11T03:58:23;98680;;;13.2;100
51195;BME280;37259;49.972;19.850;2022-07-11T03:59:23;98690;;;13.2;100
51195;BME280;37259;49.972;19.850;2022-07-11T04:00:23;98690;;;13.2;100
51195;BME280;37259;49.972;19.850;2022-07-11T04:01:23;98690;;;13.1;100
51195;BME280;37259;49.972;19.850;2022-07-11T04:02:23;98700;;;13.1;100
51195;BME280;37259;49.972;19.850;2022-07-11T04:03:23;98700;;;13.1;100
51195;BME280;37259;49.972;19.850;2022-07-11T04:04:23;98700;;;13.1;100
51195;BME280;37259;49.972;19.850;2022-07-11T04:05:23;98700;;;13.1;100
51195;BME280;37259;49.972;19.850;2022-07-11T04:06:23;98700;;;13.2;100
51195;BME280;37259;49.972;19.850;2022-07-11T04:07:23;98700;;;13.2;100
51195;BME280;37259;49.972;19.850;2022-07-11T04:08:23;98700;;;13.1;100
51195;BME280;37259;49.972;19.850;2022-07-11T04:09:23;98700;;;13.1;100
51195;BME280;37259;49.972;19.850;2022-07-11T04:10:23;98700;;;13.2;100
51195;BME280;37259;49.972;19.850;2022-07-11T04:11:23;98700;;;13.2;100
51195;BME280;37259;49.972;19.850;2022-07-11T04:12:23;98690;;;13.2;100
51195;BME280;37259;49.972;19.850;2022-07-11T04:13:24;98700;;;13.2;100
51195;BME280;37259;49.972;19.850;2022-07-11T04:14:23;98700;;;13.2;100
51195;BME280;37259;49.972;19.850;2022-07-11T04:15:23;98700;;;13.2;100
51195;BME280;37259;49.972;19.850;2022-07-11T04:16:23;98700;;;13.2;100
51195;BME280;37259;49.972;19.850;2022-07-11T04:17:23;98700;;;13.2;100
51195;BME280;37259;49.972;19.850;2022-07-11T04:18:23;98700;;;13.1;100
51195;BME280;37259;49.972;19.850;2022-07-11T04:19:23;98700;;;13.1;100
51195;BME280;37259;49.972;19.850;2022-07-11T04:20:23;98700;;;13.1;100
51195;BME280;37259;49.972;19.850;2022-07-11T04:21:23;98700;;;13.2;100
51195;BME280;37259;49.972;19.850;2022-07-11T04:22:23;98700;;;13.3;100
51195;BME280;37259;49.972;19.850;2022-07-11T04:23:23;98700;;;13.3;100
51195;BME280;37259;49.972;19.850;2022-07-11T04:24:23;98700;;;13.3;100
51195;BME280;37259;49.972;19.850;2022-07-11T04:25:23;98700;;;13.4;100
51195;BME280;37259;49.972;19.850;2022-07-11T04:26:23;98700;;;13.4;100
51195;BME280;37259;49.972;19.850;2022-07-11T04:27:23;98700;;;13.3;100
51195;BME280;37259;49.972;19.850;2022-07-11T04:28:23;98700;;;13.3;100
51195;BME280;37259;49.972;19.850;2022-07-11T04:29:23;98700;;;13.4;100
51195;BME280;37259;49.972;19.850;2022-07-11T04:30:23;98700;;;13.4;100
51195;BME280;37259;49.972;19.850;2022-07-11T04:31:23;98700;;;13.4;100
51195;BME280;37259;49.972;19.850;2022-07-11T04:32:23;98700;;;13.4;100
51195;BME280;37259;49.972;19.850;2022-07-11T04:33:23;98700;;;13.4;100
51195;BME280;37259;49.972;19.850;2022-07-11T04:34:23;98700;;;13.4;100
51195;BME280;37259;49.972;19.850;2022-07-11T04:35:23;98700;;;13.4;100
51195;BME280;37259;49.972;19.850;2022-07-11T04:36:23;98700;;;13.4;100
51195;BME280;37259;49.972;19.850;2022-07-11T04:37:23;98700;;;13.3;100
51195;BME280;37259;49.972;19.850;2022-07-11T04:38:23;98700;;;13.4;100
51195;BME280;37259;49.972;19.850;2022-07-11T04:39:23;98700;;;13.5;100
51195;BME280;37259;49.972;19.850;2022-07-11T04:40:23;98700;;;13.5;100
51195;BME280;37259;49.972;19.850;2022-07-11T04:41:23;98700;;;13.4;100
51195;BME280;37259;49.972;19.850;2022-07-11T04:42:23;98710;;;13.4;100
51195;BME280;37259;49.972;19.850;2022-07-11T04:43:23;98700;;;13.4;100
51195;BME280;37259;49.972;19.850;2022-07-11T04:44:23;98700;;;13.4;100
51195;BME280;37259;49.972;19.850;2022-07-11T04:45:23;98700;;;13.4;100
51195;BME280;37259;49.972;19.850;2022-07-11T04:46:23;98700;;;13.4;100
51195;BME280;37259;49.972;19.850;2022-07-11T04:47:23;98710;;;13.5;100
51195;BME280;37259;49.972;19.850;2022-07-11T04:48:23;98700;;;13.4;100
51195;BME280;37259;49.972;19.850;2022-07-11T04:49:23;98700;;;13.4;100
51195;BME280;37259;49.972;19.850;2022-07-11T04:50:23;98700;;;13.5;100
51195;BME280;37259;49.972;19.850;2022-07-11T04:51:23;98700;;;13.5;100
51195;BME280;37259;49.972;19.850;2022-07-11T04:52:23;98710;;;13.5;100
51195;BME280;37259;49.972;19.850;2022-07-11T04:53:23;98710;;;13.4;100
51195;BME280;37259;49.972;19.850;2022-07-11T04:54:23;98710;;;13.4;100
51195;BME280;37259;49.972;19.850;2022-07-11T04:55:23;98710;;;13.4;100
51195;BME280;37259;49.972;19.850;2022-07-11T04:56:23;98710;;;13.4;100
51195;BME280;37259;49.972;19.850;2022-07-11T04:57:23;98710;;;13.4;100
51195;BME280;37259;49.972;19.850;2022-07-11T04:58:23;98710;;;13.3;100
51195;BME280;37259;49.972;19.850;2022-07-11T04:59:23;98710;;;13.3;100
51195;BME280;37259;49.972;19.850;2022-07-11T05:00:23;98720;;;13.3;100
51195;BME280;37259;49.972;19.850;2022-07-11T05:01:23;98720;;;13.4;100
51195;BME280;37259;49.972;19.850;2022-07-11T05:02:23;98720;;;13.4;100
51195;BME280;37259;49.972;19.850;2022-07-11T05:03:23;98720;;;13.4;100
51195;BME280;37259;49.972;19.850;2022-07-11T05:04:23;98720;;;13.4;100
51195;BME280;37259;49.972;19.850;2022-07-11T05:05:23;98720;;;13.5;100
51195;BME280;37259;49.972;19.850;2022-07-11T05:06:23;98720;;;13.5;100
51195;BME280;37259;49.972;19.850;2022-07-11T05:07:23;98720;;;13.5;100
51195;BME280;37259;49.972;19.850;2022-07-11T05:08:23;98720;;;13.6;100
51195;BME280;37259;49.972;19.850;2022-07-11T05:09:23;98720;;;13.6;100
51195;BME280;37259;49.972;19.850;2022-07-11T05:10:23;98720;;;13.6;100
51195;BME280;37259;49.972;19.850;2022-07-11T05:11:23;98720;;;13.6;100
51195;BME280;37259;49.972;19.850;2022-07-11T05:12:23;98720;;;13.5;100
51195;BME280;37259;49.972;19.850;2022-07-11T05:13:23;98720;;;13.5;100
51195;BME280;37259;49.972;19.850;2022-07-11T05:14:23;98720;;;13.5;100
51195;BME280;37259;49.972;19.850;2022-07-11T05:15:23;98720;;;13.5;100
51195;BME280;37259;49.972;19.850;2022-07-11T05:16:23;98720;;;13.5;100
51195;BME280;37259;49.972;19.850;2022-07-11T05:17:23;98720;;;13.5;100
51195;BME280;37259;49.972;19.850;2022-07-11T05:18:23;98720;;;13.5;100
51195;BME280;37259;49.972;19.850;2022-07-11T05:19:23;98720;;;13.8;100
51195;BME280;37259;49.972;19.850;2022-07-11T05:20:23;98720;;;13.8;100
51195;BME280;37259;49.972;19.850;2022-07-11T05:21:23;98720;;;14;100
51195;BME280;37259;49.972;19.850;2022-07-11T05:22:23;98720;;;14;100
51195;BME280;37259;49.972;19.850;2022-07-11T05:23:23;98720;;;14;100
51195;BME280;37259;49.972;19.850;2022-07-11T05:24:23;98710;;;14;100
51195;BME280;37259;49.972;19.850;2022-07-11T05:25:23;98720;;;14;100
51195;BME280;37259;49.972;19.850;2022-07-11T05:26:23;98720;;;14.1;100
51195;BME280;37259;49.972;19.850;2022-07-11T05:27:23;98720;;;14.1;100
51195;BME280;37259;49.972;19.850;2022-07-11T05:28:23;98720;;;14.3;100
51195;BME280;37259;49.972;19.850;2022-07-11T05:29:23;98720;;;14.4;100
51195;BME280;37259;49.972;19.850;2022-07-11T05:30:23;98720;;;14.3;100
51195;BME280;37259;49.972;19.850;2022-07-11T05:31:23;98720;;;14.3;100
51195;BME280;37259;49.972;19.850;2022-07-11T05:32:23;98720;;;14.3;100
51195;BME280;37259;49.972;19.850;2022-07-11T05:33:23;98720;;;14.4;100
51195;BME280;37259;49.972;19.850;2022-07-11T05:34:23;98720;;;14.4;100
51195;BME280;37259;49.972;19.850;2022-07-11T05:35:23;98720;;;14.4;100
51195;BME280;37259;49.972;19.850;2022-07-11T05:36:23;98720;;;14.4;100
51195;BME280;37259;49.972;19.850;2022-07-11T05:37:23;98720;;;14.4;100
51195;BME280;37259;49.972;19.850;2022-07-11T05:38:23;98720;;;14.5;100
51195;BME280;37259;49.972;19.850;2022-07-11T05:39:23;98720;;;14.5;100
51195;BME280;37259;49.972;19.850;2022-07-11T05:40:23;98730;;;14.5;100